Etusivu
METAR-TAF:

METAR-TAF

Lentoasemat :

Albertus Airport

Freeport, Illinois, Yhdysvallat

Leveyspiiri: 42-14-47N, Pituuspiiri: 089-34-56W, korkeus merenpinnasta: 262 m

Tämänhetkinen sää

Tämä raportti tehtiin 26 minuuttia sitten, kello 15.15 UTC
Tuuli 3 kn pohjoisen/luoteesta
Lämpötila -2°C
Kosteus 100%
Ilmanpaine 1007 hPa
Näkyvyys: 2.4 km
Hajonneita pilviä 600 ft:n korkeudessa
Pilvistä 3000 ft:n korkeudessa
heikkoa lumisadetta

METAR: KFEP 171515Z AUTO 34003KT 1 1/2SM -SN BKN006 OVC030 M02/M02 A2974 RMK AO2 T10171018

Aika: 09:41 (15:41 UTC)


TAF: puuttuu

Säähavainnot ja -ennusteet yli 4000 lentoasemalta (METAR- ja TAF-raportit).

Käytössä olevat sääasemat on merkitty karttaan keltaisilla ja punaisilla pisteillä.

Aseta hiiri pisteen päälle nähdäksesi sääaseman nimen.

Klikkaa sitten nähdäksesi säähavainnot ja -ennusteet.

Kartan vaihtaminen: klikkaa mustalla rastilla varustettuja vihreitä pisteitä, niin voit zoomata sisään; viivalla varustettua vihreää pistettä, niin voit zoomata ulos tai vihreitä nuolia, niin pääset viereisille kartoille.


METAR-TAF: